Time;durP1;ratioP1;P1;durP2;ratioP2;P2;SDS_P1;SDS_P2;PMS_P1;PMS_P2;Temp;Humidity;BMP_temperature;BMP_pressure;BME280_temperature;BME280_humidity;BME280_pressure;Samples;Min_cycle;Max_cycle;Signal;HPM_P1;HPM_P2
2022/09/02 00:00:50;;;;;;;3.72;3.42;;;12.70;99.90;;;;;;5093736;28;20066;-73
2022/09/02 00:03:16;;;;;;;3.67;3.38;;;12.70;99.90;;;;;;5094642;28;20552;-74
2022/09/02 00:05:42;;;;;;;4.88;3.65;;;12.60;99.90;;;;;;5094550;28;20025;-74
2022/09/02 00:08:09;;;;;;;5.05;3.40;;;12.60;99.90;;;;;;5094454;28;20031;-74
2022/09/02 00:10:37;;;;;;;3.83;3.40;;;12.50;99.90;;;;;;5094528;28;20095;-74
2022/09/02 00:13:03;;;;;;;3.30;3.05;;;12.50;99.90;;;;;;5094301;28;20016;-75
2022/09/02 00:15:29;;;;;;;4.40;3.30;;;12.40;99.90;;;;;;5094455;28;20028;-74
2022/09/02 00:17:55;;;;;;;4.32;2.83;;;12.40;99.90;;;;;;5094138;28;20030;-74
2022/09/02 00:20:20;;;;;;;4.00;2.95;;;12.40;99.90;;;;;;5094118;28;20028;-74
2022/09/02 00:22:46;;;;;;;4.65;2.90;;;12.50;99.90;;;;;;5094139;28;20056;-75
2022/09/02 00:25:12;;;;;;;3.20;2.90;;;12.40;99.90;;;;;;5094202;28;20021;-74
2022/09/02 00:27:37;;;;;;;4.05;2.90;;;12.50;99.90;;;;;;5093988;28;20028;-74
2022/09/02 00:30:05;;;;;;;3.50;2.92;;;12.40;99.90;;;;;;5094197;28;20024;-74
2022/09/02 00:32:30;;;;;;;3.72;2.90;;;12.30;99.90;;;;;;5094476;28;20058;-74
2022/09/02 00:34:57;;;;;;;3.13;2.90;;;12.40;99.90;;;;;;5114094;28;20051;-74
2022/09/02 00:37:25;;;;;;;2.78;2.58;;;12.40;99.90;;;;;;5114244;28;20046;-75
2022/09/02 00:39:52;;;;;;;3.05;2.45;;;12.40;99.90;;;;;;5114295;28;20040;-74
2022/09/02 00:42:19;;;;;;;3.15;2.85;;;12.40;99.90;;;;;;5114068;28;20019;-74
2022/09/02 00:44:44;;;;;;;3.20;2.75;;;12.20;99.90;;;;;;5114373;28;20066;-74
2022/09/02 00:47:10;;;;;;;2.60;2.40;;;12.10;99.90;;;;;;5114276;28;20059;-74
2022/09/02 00:49:40;;;;;;;4.57;2.55;;;12.20;99.90;;;;;;5114265;28;20028;-75
2022/09/02 00:52:19;;;;;;;2.95;2.75;;;12.20;99.90;;;;;;5114165;28;20098;-74
2022/09/02 00:54:50;;;;;;;2.50;2.30;;;12.20;99.90;;;;;;5114050;28;20035;-75
2022/09/02 00:57:21;;;;;;;2.60;2.40;;;12.20;99.90;;;;;;5114016;28;20023;-73
2022/09/02 01:00:10;;;;;;;2.80;2.60;;;12.10;99.90;;;;;;5114228;28;20016;-74
2022/09/02 01:02:37;;;;;;;3.05;2.65;;;12.10;99.90;;;;;;5113971;28;20028;-74
2022/09/02 01:05:06;;;;;;;2.60;2.40;;;12.00;99.90;;;;;;5113905;28;20039;-74
2022/09/02 01:07:37;;;;;;;2.97;2.47;;;12.00;99.90;;;;;;5113651;28;20374;-74
2022/09/02 01:10:08;;;;;;;5.60;2.60;;;12.00;99.90;;;;;;5113791;28;20051;-75
2022/09/02 01:12:34;;;;;;;2.63;2.25;;;12.00;99.90;;;;;;5113773;28;20072;-75
2022/09/02 01:15:01;;;;;;;4.75;2.42;;;11.90;99.90;;;;;;5113733;28;20018;-74
2022/09/02 01:17:27;;;;;;;2.50;2.30;;;11.90;99.90;;;;;;5113597;28;20723;-74
2022/09/02 01:20:03;;;;;;;3.08;2.47;;;11.90;99.90;;;;;;5113338;28;20532;-75
2022/09/02 01:22:30;;;;;;;2.80;2.50;;;11.90;99.90;;;;;;5093073;28;20036;-74
2022/09/02 01:25:01;;;;;;;2.85;2.40;;;11.90;99.90;;;;;;5093375;28;20016;-74
2022/09/02 01:27:27;;;;;;;2.85;2.42;;;11.80;99.90;;;;;;5093061;28;20413;-74
2022/09/02 01:29:56;;;;;;;2.45;2.25;;;11.80;99.90;;;;;;5093081;28;20482;-74
2022/09/02 01:32:23;;;;;;;2.53;2.33;;;11.70;99.90;;;;;;5093117;28;20100;-75
2022/09/02 01:34:49;;;;;;;2.97;2.45;;;11.70;99.90;;;;;;5092913;28;20022;-74
2022/09/02 01:37:15;;;;;;;2.63;2.40;;;11.60;99.90;;;;;;5092821;28;20114;-74
2022/09/02 01:39:41;;;;;;;2.50;2.30;;;11.80;99.90;;;;;;5092739;28;20024;-74
2022/09/02 01:42:07;;;;;;;2.80;2.58;;;11.70;99.90;;;;;;5092813;28;20039;-74
2022/09/02 01:44:37;;;;;;;4.03;2.92;;;11.60;99.90;;;;;;5093039;28;20431;-74
2022/09/02 01:47:03;;;;;;;2.67;2.47;;;11.70;99.90;;;;;;5093124;28;20075;-74
2022/09/02 01:49:29;;;;;;;2.85;2.60;;;11.60;99.90;;;;;;5092738;28;20032;-74
2022/09/02 01:51:55;;;;;;;2.45;2.25;;;11.60;99.90;;;;;;5092808;28;20024;-74
2022/09/02 01:54:20;;;;;;;2.55;2.17;;;11.60;99.90;;;;;;5092575;28;20103;-74
2022/09/02 01:56:46;;;;;;;3.33;2.40;;;11.60;99.90;;;;;;5092685;28;20099;-74
2022/09/02 01:59:16;;;;;;;2.70;2.50;;;11.40;99.90;;;;;;5092562;28;20115;-74
2022/09/02 02:01:43;;;;;;;2.60;2.40;;;11.50;99.90;;;;;;5092836;28;20036;-74
2022/09/02 02:04:09;;;;;;;3.35;2.42;;;11.40;99.90;;;;;;5092433;28;20454;-74
2022/09/02 02:06:47;;;;;;;3.20;2.45;;;11.50;99.90;;;;;;5092540;28;20059;-74
2022/09/02 02:09:13;;;;;;;2.60;2.30;;;11.40;99.90;;;;;;5092883;28;20016;-74
2022/09/02 02:11:39;;;;;;;3.80;2.50;;;11.40;99.90;;;;;;5092533;28;20030;-74
2022/09/02 02:14:05;;;;;;;3.17;2.47;;;11.50;99.90;;;;;;5092664;28;20024;-73
2022/09/02 02:16:31;;;;;;;2.60;2.40;;;11.40;99.90;;;;;;5092457;28;20036;-73
2022/09/02 02:18:57;;;;;;;3.95;2.60;;;11.30;99.90;;;;;;5092293;28;20473;-73
2022/09/02 02:21:22;;;;;;;2.55;2.35;;;11.30;99.90;;;;;;5092427;28;20036;-73
2022/09/02 02:23:48;;;;;;;5.85;2.20;;;11.30;99.90;;;;;;5093688;28;20024;-74
2022/09/02 02:26:14;;;;;;;3.55;2.53;;;11.20;99.90;;;;;;5096555;28;20059;-73
2022/09/02 02:28:39;;;;;;;2.17;2.08;;;11.30;99.90;;;;;;5096524;28;20079;-74
2022/09/02 02:31:06;;;;;;;2.92;2.55;;;11.20;99.90;;;;;;5096490;28;20706;-74
2022/09/02 02:33:32;;;;;;;4.50;2.47;;;11.20;99.90;;;;;;5096434;28;20020;-75
2022/09/02 02:35:58;;;;;;;2.40;2.20;;;11.10;99.90;;;;;;5096266;28;20500;-74
2022/09/02 02:38:23;;;;;;;4.97;2.50;;;11.10;99.90;;;;;;5096015;28;20516;-74
2022/09/02 02:40:53;;;;;;;3.05;2.40;;;11.30;99.90;;;;;;5096066;28;20024;-74
2022/09/02 02:43:19;;;;;;;2.55;2.33;;;11.40;99.90;;;;;;5096569;28;20020;-74
2022/09/02 02:45:45;;;;;;;4.13;2.55;;;11.60;99.90;;;;;;5096134;28;20027;-74
2022/09/02 02:48:12;;;;;;;2.38;2.17;;;11.40;99.90;;;;;;5096380;28;20026;-74
2022/09/02 02:50:38;;;;;;;3.85;2.38;;;11.40;99.90;;;;;;5096350;28;20020;-75
2022/09/02 02:53:04;;;;;;;2.40;2.28;;;11.60;99.90;;;;;;5096063;28;20031;-74
2022/09/02 02:55:29;;;;;;;2.58;2.38;;;11.40;99.90;;;;;;5096183;28;20020;-74
2022/09/02 02:57:55;;;;;;;2.65;2.15;;;11.30;99.90;;;;;;5095862;28;20093;-74
2022/09/02 03:00:25;;;;;;;2.80;2.60;;;11.50;99.90;;;;;;5095688;28;20035;-75
2022/09/02 03:02:58;;;;;;;3.00;2.45;;;11.60;99.90;;;;;;5095880;28;20061;-75
2022/09/02 03:05:24;;;;;;;2.78;2.45;;;11.70;99.90;;;;;;5095847;28;20040;-75
2022/09/02 03:07:50;;;;;;;2.85;2.50;;;11.50;99.90;;;;;;5095705;28;20078;-74
2022/09/02 03:10:17;;;;;;;2.53;2.33;;;11.50;99.90;;;;;;5095958;28;20021;-74
2022/09/02 03:12:46;;;;;;;3.33;2.60;;;11.50;99.90;;;;;;5095564;28;20032;-74
2022/09/02 03:15:15;;;;;;;3.30;2.40;;;11.50;99.90;;;;;;5095828;28;20028;-74
2022/09/02 03:17:42;;;;;;;2.53;2.33;;;11.40;99.90;;;;;;5095856;28;20519;-74
2022/09/02 03:20:08;;;;;;;3.25;2.53;;;11.40;99.90;;;;;;5095262;28;20028;-74
2022/09/02 03:22:37;;;;;;;2.58;2.38;;;11.40;99.90;;;;;;5095510;28;20097;-75
2022/09/02 03:25:07;;;;;;;2.60;2.30;;;11.50;99.90;;;;;;5095506;28;20061;-74
2022/09/02 03:27:33;;;;;;;3.22;2.60;;;11.40;99.90;;;;;;5095602;28;20054;-74
2022/09/02 03:29:59;;;;;;;2.92;2.60;;;11.50;99.90;;;;;;5095307;28;20079;-75
2022/09/02 03:32:26;;;;;;;2.95;2.75;;;11.50;99.90;;;;;;5095267;28;20016;-74
2022/09/02 03:34:52;;;;;;;2.65;2.45;;;11.50;99.90;;;;;;5094385;28;20024;-74
2022/09/02 03:37:19;;;;;;;3.00;2.60;;;11.60;99.90;;;;;;5095134;28;20130;-74
2022/09/02 03:39:44;;;;;;;3.80;2.60;;;11.60;99.90;;;;;;5100595;28;20027;-73
2022/09/02 03:42:10;;;;;;;5.13;2.58;;;11.50;99.90;;;;;;5115503;28;20024;-73
2022/09/02 03:44:35;;;;;;;3.20;2.60;;;11.40;99.90;;;;;;5115489;28;20152;-73
2022/09/02 03:47:01;;;;;;;4.55;3.00;;;11.20;99.90;;;;;;5115369;28;20417;-73
2022/09/02 03:49:27;;;;;;;3.25;2.63;;;11.20;99.90;;;;;;5115447;28;20030;-73
2022/09/02 03:51:53;;;;;;;3.95;2.60;;;11.10;99.90;;;;;;5115331;28;20069;-74
2022/09/02 03:54:18;;;;;;;2.33;2.17;;;11.00;99.90;;;;;;5115358;28;20051;-74
2022/09/02 03:56:44;;;;;;;2.83;2.50;;;11.00;99.90;;;;;;5115107;28;20133;-74
2022/09/02 03:59:09;;;;;;;2.50;2.30;;;11.00;99.90;;;;;;5115159;28;20024;-73
2022/09/02 04:01:35;;;;;;;4.00;2.60;;;10.90;99.90;;;;;;5115061;28;20023;-74
2022/09/02 04:04:02;;;;;;;3.72;2.78;;;10.90;99.90;;;;;;5114994;28;20017;-74
2022/09/02 04:06:28;;;;;;;3.83;2.85;;;10.80;99.90;;;;;;5114974;28;20028;-74
2022/09/02 04:08:54;;;;;;;3.03;2.72;;;11.00;99.90;;;;;;5115078;28;20077;-74
2022/09/02 04:11:21;;;;;;;2.97;2.42;;;10.90;99.90;;;;;;5114631;28;20015;-74
2022/09/02 04:13:49;;;;;;;4.07;2.53;;;11.00;99.90;;;;;;5114855;28;20110;-74
2022/09/02 04:16:27;;;;;;;3.85;2.70;;;10.80;99.90;;;;;;5114788;28;20012;-74
2022/09/02 04:18:55;;;;;;;3.78;3.03;;;10.90;99.90;;;;;;5115149;28;20020;-74
2022/09/02 04:21:20;;;;;;;3.00;2.63;;;11.00;99.90;;;;;;5115078;28;20038;-74
2022/09/02 04:23:46;;;;;;;3.08;2.33;;;10.80;99.90;;;;;;5114769;28;20645;-74
2022/09/02 04:26:15;;;;;;;2.67;2.30;;;10.80;99.90;;;;;;5114530;28;20080;-74
2022/09/02 04:28:41;;;;;;;3.13;2.40;;;10.80;99.90;;;;;;5114545;28;20020;-75
2022/09/02 04:31:09;;;;;;;2.38;2.17;;;10.80;99.90;;;;;;5114377;28;20081;-74
2022/09/02 04:33:35;;;;;;;4.82;2.83;;;10.70;99.90;;;;;;5114476;28;20027;-74
2022/09/02 04:36:07;;;;;;;2.72;2.33;;;10.70;99.90;;;;;;5114389;28;20016;-74
2022/09/02 04:38:33;;;;;;;2.58;2.38;;;10.70;99.90;;;;;;5114278;28;20044;-74
2022/09/02 04:40:59;;;;;;;2.95;2.70;;;10.70;99.90;;;;;;5113865;28;20035;-74
2022/09/02 04:43:24;;;;;;;5.90;2.60;;;10.70;99.90;;;;;;5114142;28;20080;-74
2022/09/02 04:45:50;;;;;;;3.83;2.45;;;10.70;99.90;;;;;;5114096;28;20100;-74
2022/09/02 04:48:17;;;;;;;2.75;2.50;;;10.60;99.90;;;;;;5113997;28;20031;-74
2022/09/02 04:50:44;;;;;;;2.72;2.53;;;10.50;99.90;;;;;;5114483;28;20020;-74
2022/09/02 04:53:10;;;;;;;3.03;2.60;;;10.60;99.90;;;;;;5114101;28;20020;-74
2022/09/02 04:55:39;;;;;;;2.70;2.50;;;10.60;99.90;;;;;;5114067;28;20378;-74
2022/09/02 04:58:05;;;;;;;3.00;2.78;;;10.60;99.90;;;;;;5113893;28;20024;-74
2022/09/02 05:00:31;;;;;;;3.28;2.78;;;10.60;99.90;;;;;;5114436;28;20043;-74
2022/09/02 05:02:56;;;;;;;5.40;2.50;;;10.60;99.90;;;;;;5114267;28;20035;-74
2022/09/02 05:05:24;;;;;;;4.00;2.60;;;10.60;99.90;;;;;;5114154;28;20496;-74
2022/09/02 05:07:50;;;;;;;4.35;3.20;;;10.80;99.90;;;;;;5113806;28;20024;-74
2022/09/02 05:10:16;;;;;;;5.40;2.83;;;10.90;99.90;;;;;;5114260;28;21560;-74
2022/09/02 05:12:42;;;;;;;2.80;2.22;;;10.90;99.90;;;;;;5113476;28;20106;-75
2022/09/02 05:15:09;;;;;;;2.88;2.47;;;11.00;99.90;;;;;;5104528;28;20058;-74
2022/09/02 05:17:35;;;;;;;3.50;2.55;;;11.00;99.90;;;;;;5092869;28;20110;-75
2022/09/02 05:20:06;;;;;;;2.85;2.55;;;11.10;99.90;;;;;;5093171;28;20112;-74
2022/09/02 05:22:32;;;;;;;4.85;2.60;;;11.20;99.90;;;;;;5093461;28;20024;-75
2022/09/02 05:24:58;;;;;;;2.72;2.35;;;11.00;99.90;;;;;;5112914;28;20022;-74
2022/09/02 05:27:24;;;;;;;3.08;2.72;;;11.20;99.90;;;;;;5113368;28;20094;-75
2022/09/02 05:29:49;;;;;;;4.15;2.65;;;11.30;99.90;;;;;;5113479;28;20024;-75
2022/09/02 05:32:15;;;;;;;2.58;2.33;;;11.30;99.90;;;;;;5113184;28;20090;-75
2022/09/02 05:34:41;;;;;;;2.35;2.17;;;11.40;99.90;;;;;;5113272;28;20028;-75
2022/09/02 05:37:07;;;;;;;2.88;2.58;;;11.50;99.90;;;;;;5113298;28;20020;-75
2022/09/02 05:39:33;;;;;;;2.58;2.38;;;11.50;99.90;;;;;;5113204;28;20084;-75
2022/09/02 05:41:59;;;;;;;2.60;2.40;;;11.60;99.90;;;;;;5113133;28;20482;-74
2022/09/02 05:44:25;;;;;;;2.88;2.30;;;11.70;99.90;;;;;;5113173;28;20069;-74
2022/09/02 05:46:50;;;;;;;2.53;2.33;;;11.90;99.90;;;;;;5112983;28;20068;-74
2022/09/02 05:49:20;;;;;;;4.13;2.47;;;12.00;99.90;;;;;;5112934;28;20051;-74
2022/09/02 05:51:51;;;;;;;3.50;2.87;;;12.10;99.90;;;;;;5113416;28;20020;-74
2022/09/02 05:54:23;;;;;;;4.60;2.40;;;12.20;99.90;;;;;;5113096;28;20026;-74
2022/09/02 05:56:52;;;;;;;6.72;2.30;;;12.30;99.90;;;;;;5113044;28;20051;-75
2022/09/02 05:59:19;;;;;;;2.40;2.20;;;12.50;99.90;;;;;;5112361;28;20027;-74
2022/09/02 06:01:44;;;;;;;3.13;2.47;;;12.70;99.90;;;;;;5112980;28;20024;-74
2022/09/02 06:04:10;;;;;;;3.58;2.22;;;12.80;99.90;;;;;;5112877;28;20460;-75
2022/09/02 06:06:39;;;;;;;2.88;2.60;;;12.80;99.90;;;;;;5112951;28;20038;-75
2022/09/02 06:09:07;;;;;;;2.70;2.33;;;13.10;99.90;;;;;;5113093;28;20529;-74
2022/09/02 06:11:33;;;;;;;2.70;2.50;;;13.10;99.90;;;;;;5113105;28;20016;-74
2022/09/02 06:13:59;;;;;;;2.92;2.53;;;13.20;99.90;;;;;;5112644;28;20031;-74
2022/09/02 06:16:25;;;;;;;3.30;3.00;;;13.30;99.90;;;;;;5113039;28;20027;-74
2022/09/02 06:18:51;;;;;;;2.50;2.30;;;13.40;99.90;;;;;;5112902;28;20712;-74
2022/09/02 06:21:19;;;;;;;2.55;2.08;;;13.50;99.90;;;;;;5112538;28;20063;-75
2022/09/02 06:23:46;;;;;;;2.72;2.38;;;13.60;99.90;;;;;;5112874;28;20030;-74
2022/09/02 06:26:13;;;;;;;3.40;2.40;;;13.70;99.90;;;;;;5112661;28;20028;-74
2022/09/02 06:28:39;;;;;;;4.10;2.63;;;13.90;99.90;;;;;;5112528;28;20465;-75
2022/09/02 06:31:15;;;;;;;4.25;2.53;;;13.90;99.90;;;;;;5112836;28;20422;-75
2022/09/02 06:33:43;;;;;;;2.83;2.45;;;14.20;99.90;;;;;;5112559;28;20019;-75
2022/09/02 06:36:12;;;;;;;3.17;2.50;;;14.50;99.90;;;;;;5112551;28;20024;-75
2022/09/02 06:38:39;;;;;;;2.67;2.33;;;14.60;99.90;;;;;;5112208;28;20048;-75
2022/09/02 06:41:05;;;;;;;1.92;1.83;;;14.70;99.90;;;;;;5112303;28;20027;-75
2022/09/02 06:43:32;;;;;;;2.72;2.30;;;14.80;99.90;;;;;;5111462;28;20106;-75
2022/09/02 06:45:57;;;;;;;2.50;1.85;;;15.00;99.90;;;;;;5092120;28;20078;-74
2022/09/02 06:48:23;;;;;;;5.18;2.55;;;16.70;99.90;;;;;;5092100;28;20409;-74
2022/09/02 06:50:48;;;;;;;3.28;2.13;;;20.40;99.90;;;;;;5092077;28;20095;-75
2022/09/02 06:53:16;;;;;;;3.72;2.13;;;22.50;99.90;;;;;;5092082;28;20024;-75
2022/09/02 06:55:43;;;;;;;2.90;1.75;;;23.10;99.90;;;;;;5092385;28;20020;-75
2022/09/02 06:58:09;;;;;;;3.10;1.80;;;23.00;99.90;;;;;;5091901;28;20032;-74
2022/09/02 07:00:36;;;;;;;4.53;1.70;;;24.10;99.90;;;;;;5092805;28;20030;-75
2022/09/02 07:05:46;;;;;;;1.80;1.70;;;26.10;99.90;;;;;;5091963;28;20027;-75
2022/09/02 07:08:12;;;;;;;1.73;1.58;;;26.40;99.90;;;;;;5091743;28;20440;-75
2022/09/02 07:10:39;;;;;;;3.55;1.42;;;26.20;99.90;;;;;;5094580;28;20032;-76
2022/09/02 07:13:06;;;;;;;1.92;1.63;;;26.00;99.90;;;;;;5095776;28;20020;-75
2022/09/02 07:15:32;;;;;;;2.05;1.52;;;26.60;99.90;;;;;;5095608;28;20036;-75
2022/09/02 07:17:58;;;;;;;4.30;1.60;;;26.20;99.90;;;;;;5095699;28;20537;-75
2022/09/02 07:20:23;;;;;;;1.58;1.48;;;27.50;99.90;;;;;;5102811;28;20106;-75
2022/09/02 07:22:49;;;;;;;1.50;1.40;;;28.90;99.90;;;;;;5115572;28;20445;-75
2022/09/02 07:25:17;;;;;;;3.05;1.55;;;27.20;99.90;;;;;;5115788;28;20027;-75
2022/09/02 07:27:43;;;;;;;1.98;1.50;;;26.70;99.90;;;;;;5115870;28;20028;-75
2022/09/02 07:30:10;;;;;;;2.45;1.60;;;29.60;99.90;;;;;;5115956;28;20024;-76
2022/09/02 07:32:36;;;;;;;2.40;1.30;;;29.90;99.90;;;;;;5115704;28;20027;-76
2022/09/02 07:35:05;;;;;;;1.77;1.30;;;28.80;99.90;;;;;;5115555;28;20028;-76
2022/09/02 07:37:31;;;;;;;1.77;1.50;;;27.50;99.90;;;;;;5115527;28;20097;-76
2022/09/02 07:39:57;;;;;;;2.40;1.70;;;28.40;99.90;;;;;;5108705;28;20655;-75
2022/09/02 07:42:23;;;;;;;1.73;1.35;;;27.00;99.90;;;;;;5095440;28;20458;-75
2022/09/02 07:44:49;;;;;;;1.42;1.33;;;26.70;99.90;;;;;;5095071;28;20074;-76
2022/09/02 07:47:15;;;;;;;2.10;1.40;;;27.70;99.90;;;;;;5110331;28;20114;-75
2022/09/02 07:49:40;;;;;;;1.92;1.67;;;27.50;99.90;;;;;;5115638;28;20023;-76
2022/09/02 07:52:06;;;;;;;1.80;1.50;;;29.70;99.90;;;;;;5115365;28;20022;-76
2022/09/02 07:54:32;;;;;;;1.52;1.35;;;25.90;99.90;;;;;;5115243;28;20496;-75
2022/09/02 07:56:57;;;;;;;4.38;1.40;;;29.10;99.90;;;;;;5108893;28;20362;-76
2022/09/02 07:59:23;;;;;;;1.80;1.40;;;29.10;99.90;;;;;;5115200;28;20045;-76
2022/09/02 08:01:50;;;;;;;1.77;1.40;;;28.80;99.90;;;;;;5115023;28;20024;-76
2022/09/02 08:04:17;;;;;;;2.88;1.70;;;28.50;99.90;;;;;;5115115;28;20059;-75
2022/09/02 08:06:43;;;;;;;3.42;1.70;;;28.60;99.90;;;;;;5110934;28;20515;-75
2022/09/02 08:09:10;;;;;;;3.17;1.67;;;27.60;99.90;;;;;;5111932;28;20020;-75
2022/09/02 08:11:38;;;;;;;3.78;1.90;;;27.90;99.90;;;;;;5114930;28;20020;-76
2022/09/02 08:14:07;;;;;;;2.92;1.70;;;28.80;99.90;;;;;;5114847;28;20619;-75
2022/09/02 08:16:33;;;;;;;2.80;1.47;;;29.80;99.90;;;;;;5114705;28;20076;-75
2022/09/02 08:18:59;;;;;;;1.70;1.55;;;27.80;99.90;;;;;;5115011;28;20251;-78
2022/09/02 08:21:24;;;;;;;1.55;1.45;;;28.10;99.90;;;;;;5106203;28;20082;-78
2022/09/02 08:23:50;;;;;;;3.15;1.98;;;29.20;99.90;;;;;;5106002;28;20433;-76
2022/09/02 08:26:17;;;;;;;1.60;1.45;;;29.40;99.90;;;;;;5095983;28;20027;-77
2022/09/02 08:28:43;;;;;;;9.95;1.92;;;30.50;99.90;;;;;;5095386;28;20027;-76
2022/09/02 08:31:09;;;;;;;2.92;1.75;;;30.90;99.00;;;;;;5094204;28;20371;-75
2022/09/02 08:33:35;;;;;;;2.22;1.90;;;31.20;97.90;;;;;;5075877;28;20019;-75
2022/09/02 08:36:03;;;;;;;4.88;1.60;;;30.40;97.50;;;;;;5093895;28;20020;-76
2022/09/02 08:38:30;;;;;;;2.40;1.50;;;29.70;96.60;;;;;;5094116;28;20051;-78
2022/09/02 08:40:55;;;;;;;2.40;1.60;;;27.90;96.40;;;;;;5093991;28;20035;-76
2022/09/02 08:43:48;;;;;;;3.00;1.77;;;30.50;97.10;;;;;;5108182;28;20028;-75
2022/09/02 08:46:16;;;;;;;4.05;1.58;;;31.70;95.50;;;;;;5111235;28;20043;-76
2022/09/02 08:48:54;;;;;;;3.40;1.80;;;29.90;94.60;;;;;;5114506;28;20109;-76
2022/09/02 08:51:26;;;;;;;2.22;1.50;;;30.80;94.10;;;;;;5114502;28;20404;-76
2022/09/02 08:54:25;;;;;;;2.25;1.40;;;30.10;94.60;;;;;;5114715;28;20032;-76
2022/09/02 08:56:51;;;;;;;1.65;1.48;;;32.30;94.40;;;;;;5114580;28;20047;-76
2022/09/02 08:59:24;;;;;;;1.38;1.27;;;32.30;92.00;;;;;;5114757;28;20051;-76
2022/09/02 09:02:11;;;;;;;1.73;1.40;;;31.20;90.00;;;;;;5114676;28;20487;-76
2022/09/02 09:05:10;;;;;;;2.78;1.48;;;32.20;91.90;;;;;;5114593;28;20035;-76
2022/09/02 09:08:06;;;;;;;1.95;1.40;;;29.40;90.60;;;;;;5114239;28;20027;-77
2022/09/02 09:10:53;;;;;;;3.55;1.45;;;31.20;90.60;;;;;;5114181;28;20028;-77
2022/09/02 09:13:45;;;;;;;2.65;1.30;;;31.30;90.30;;;;;;5099104;28;20362;-75
2022/09/02 09:16:36;;;;;;;2.05;1.35;;;29.80;86.60;;;;;;5093523;28;20019;-76
2022/09/02 09:19:14;;;;;;;1.77;1.30;;;30.00;90.00;;;;;;5093827;28;20034;-77
2022/09/02 09:21:41;;;;;;;2.78;1.48;;;29.80;88.30;;;;;;5093549;28;20034;-76
2022/09/02 09:24:29;;;;;;;4.88;1.23;;;31.90;88.10;;;;;;5094076;28;20073;-76
2022/09/02 09:26:54;;;;;;;3.47;1.30;;;29.50;86.30;;;;;;5093566;28;20020;-76
2022/09/02 09:29:20;;;;;;;4.90;1.33;;;32.10;87.70;;;;;;5093635;28;20045;-76
2022/09/02 09:31:54;;;;;;;3.60;1.17;;;31.90;83.50;;;;;;5093500;28;20024;-76
2022/09/02 09:34:20;;;;;;;1.85;1.08;;;30.70;83.00;;;;;;5093495;28;20032;-76
2022/09/02 09:36:54;;;;;;;3.33;1.00;;;30.40;84.40;;;;;;5114679;28;20020;-77
2022/09/02 09:39:30;;;;;;;1.30;0.98;;;30.60;82.80;;;;;;5114556;28;20065;-76
2022/09/02 09:41:55;;;;;;;2.78;1.40;;;31.00;83.90;;;;;;5114929;28;20035;-76
2022/09/02 09:44:37;;;;;;;1.75;1.00;;;30.50;82.10;;;;;;5110005;28;20023;-75
2022/09/02 09:47:09;;;;;;;2.97;1.10;;;29.50;81.70;;;;;;5115388;28;20453;-76
2022/09/02 09:49:36;;;;;;;3.47;1.13;;;30.10;81.50;;;;;;5115609;28;20030;-77
2022/09/02 09:52:03;;;;;;;2.67;1.00;;;29.50;82.00;;;;;;5115204;28;20020;-76
2022/09/02 09:54:29;;;;;;;9.45;1.40;;;30.10;82.50;;;;;;5114722;28;20016;-77
2022/09/02 09:56:56;;;;;;;3.10;0.95;;;29.90;79.90;;;;;;5106784;28;20024;-76
2022/09/02 09:59:35;;;;;;;2.42;0.90;;;30.90;84.60;;;;;;5099811;28;20023;-76
2022/09/02 10:02:01;;;;;;;2.53;1.00;;;30.90;80.70;;;;;;5114597;28;20031;-76
2022/09/02 10:04:30;;;;;;;3.20;0.93;;;29.60;78.40;;;;;;5114553;28;20389;-76
2022/09/02 10:06:56;;;;;;;;;;;31.50;79.20;;;;;;5112249;28;20035;-76
2022/09/02 10:09:37;;;;;;;1.38;0.95;;;30.20;76.40;;;;;;5110588;28;19911;-76
2022/09/02 10:12:06;;;;;;;2.03;0.90;;;29.80;77.30;;;;;;5108629;28;20164;-76
2022/09/02 10:14:44;;;;;;;2.35;0.90;;;29.20;78.20;;;;;;5094381;28;20358;-77
2022/09/02 10:17:53;;;;;;;4.47;0.95;;;29.80;77.00;;;;;;5100139;28;20028;-76
2022/09/02 10:20:41;;;;;;;1.77;0.77;;;30.40;77.20;;;;;;5055609;28;20039;-77
2022/09/02 10:23:09;;;;;;;1.17;0.90;;;31.40;77.50;;;;;;5105732;28;20386;-76
2022/09/02 10:25:55;;;;;;;1.47;0.73;;;29.90;74.80;;;;;;5100292;28;20047;-76
2022/09/02 10:28:56;;;;;;;2.38;0.80;;;30.10;75.00;;;;;;5100501;28;20287;-76
2022/09/02 10:31:43;;;;;;;1.15;0.80;;;31.40;76.00;;;;;;5100284;28;20038;-77
2022/09/02 10:34:29;;;;;;;2.17;0.70;;;31.10;73.20;;;;;;5095410;28;20027;-76
2022/09/02 10:37:03;;;;;;;2.17;0.80;;;30.30;73.50;;;;;;5100935;28;20067;-77
2022/09/02 10:39:52;;;;;;;1.65;0.80;;;32.40;74.10;;;;;;5101119;28;20084;-76
2022/09/02 10:42:29;;;;;;;1.95;0.80;;;31.60;71.80;;;;;;5096945;28;20020;-76
2022/09/02 10:45:07;;;;;;;0.75;0.70;;;30.80;71.30;;;;;;5095162;28;20024;-77
2022/09/02 10:47:35;;;;;;;1.42;0.90;;;29.70;69.90;;;;;;5102573;28;20032;-77
2022/09/02 10:50:21;;;;;;;1.88;0.90;;;28.70;69.80;;;;;;5109809;28;20028;-77
2022/09/02 10:53:12;;;;;;;1.25;0.70;;;29.00;70.40;;;;;;5107490;28;20016;-76
2022/09/02 10:56:17;;;;;;;1.67;0.80;;;29.40;70.80;;;;;;5096201;28;20016;-76
2022/09/02 10:59:09;;;;;;;0.77;0.70;;;28.90;71.20;;;;;;5113708;28;20076;-76
2022/09/02 11:02:01;;;;;;;1.48;0.70;;;27.60;72.10;;;;;;5116784;28;20058;-77
2022/09/02 11:04:49;;;;;;;2.15;0.73;;;26.20;70.70;;;;;;5116476;28;20583;-77
2022/09/02 11:07:27;;;;;;;1.20;1.00;;;25.50;71.80;;;;;;5116554;28;20063;-77
2022/09/02 11:09:59;;;;;;;0.77;0.70;;;25.40;72.10;;;;;;5116640;28;20024;-76
2022/09/02 11:12:38;;;;;;;1.75;0.82;;;25.50;72.50;;;;;;5114692;28;20116;-77
2022/09/02 11:15:15;;;;;;;2.28;0.80;;;25.50;72.20;;;;;;5101288;28;20129;-76
2022/09/02 11:18:12;;;;;;;2.53;0.80;;;25.40;72.50;;;;;;5103810;28;20034;-76
2022/09/02 11:20:47;;;;;;;1.00;0.70;;;25.30;73.00;;;;;;5091929;28;20044;-78
2022/09/02 11:23:33;;;;;;;1.50;0.68;;;25.70;74.80;;;;;;5096145;28;20027;-78
2022/09/02 11:26:23;;;;;;;2.47;0.70;;;25.50;73.70;;;;;;5096263;28;20024;-79
2022/09/02 11:28:53;;;;;;;;;;;25.20;74.00;;;;;;5095851;28;20027;-76
2022/09/02 11:31:25;;;;;;;1.73;1.05;;;25.30;74.20;;;;;;5095317;28;19908;-75
2022/09/02 11:34:02;;;;;;;1.10;0.90;;;25.30;74.60;;;;;;5103284;28;20625;-76
2022/09/02 11:36:28;;;;;;;3.35;0.80;;;25.80;75.50;;;;;;5101818;28;20030;-76
2022/09/02 11:39:02;;;;;;;2.80;0.95;;;25.60;74.60;;;;;;5105884;28;20130;-76
2022/09/02 11:42:03;;;;;;;2.80;0.80;;;25.90;75.70;;;;;;5098033;28;20028;-77
2022/09/02 11:45:22;;;;;;;2.22;0.90;;;26.10;74.40;;;;;;5103402;28;20035;-77
2022/09/02 11:48:12;;;;;;;2.92;0.70;;;26.10;75.60;;;;;;5020886;28;20029;-78
2022/09/02 11:50:44;;;;;;;2.75;0.98;;;25.80;75.30;;;;;;5091763;28;20039;-77
2022/09/02 11:53:15;;;;;;;3.15;1.20;;;25.60;74.60;;;;;;5094742;28;20120;-76
2022/09/02 11:55:47;;;;;;;11.25;0.98;;;26.30;75.10;;;;;;5094409;28;20024;-75
2022/09/02 11:58:32;;;;;;;1.38;0.75;;;25.80;74.60;;;;;;5105181;28;20019;-75
2022/09/02 12:01:13;;;;;;;0.80;0.80;;;25.90;74.60;;;;;;5094751;28;20035;-74
2022/09/02 12:03:43;;;;;;;2.42;0.90;;;25.90;75.10;;;;;;5115076;28;20080;-75
2022/09/02 12:06:15;;;;;;;2.15;0.75;;;26.10;74.30;;;;;;5115190;28;20023;-76
2022/09/02 12:08:41;;;;;;;1.60;0.82;;;25.90;74.60;;;;;;5115274;28;20035;-75
2022/09/02 12:11:10;;;;;;;2.33;0.80;;;25.50;73.80;;;;;;5116371;28;20020;-78
2022/09/02 12:13:37;;;;;;;3.17;0.82;;;25.80;75.40;;;;;;5116146;28;20023;-76
2022/09/02 12:16:15;;;;;;;2.55;0.82;;;25.80;73.00;;;;;;5114928;28;20107;-75
2022/09/02 12:19:06;;;;;;;3.25;0.98;;;26.10;73.20;;;;;;5114873;28;20024;-76
2022/09/02 12:21:34;;;;;;;2.55;1.00;;;26.60;74.30;;;;;;5068866;28;20485;-76
2022/09/02 12:23:59;;;;;;;3.10;1.10;;;26.30;73.00;;;;;;5114831;28;20016;-76
2022/09/02 12:26:28;;;;;;;1.25;1.10;;;26.30;72.90;;;;;;5114704;28;20020;-75
2022/09/02 12:29:29;;;;;;;2.58;1.10;;;26.60;73.00;;;;;;5114576;28;20793;-75
2022/09/02 12:31:54;;;;;;;3.92;1.13;;;25.80;71.80;;;;;;5114690;28;20135;-76
2022/09/02 12:34:20;;;;;;;2.88;1.13;;;26.40;72.70;;;;;;5114297;28;20533;-76
2022/09/02 12:36:53;;;;;;;1.20;1.10;;;26.60;72.00;;;;;;5114496;28;20064;-75
2022/09/02 12:39:22;;;;;;;0.90;0.90;;;26.10;71.70;;;;;;5114075;28;20490;-75
2022/09/02 12:42:06;;;;;;;3.57;1.10;;;26.40;71.50;;;;;;5114385;28;20107;-76
2022/09/02 12:44:47;;;;;;;1.20;1.10;;;26.70;71.20;;;;;;5114255;28;20389;-75
2022/09/02 12:47:18;;;;;;;2.65;1.00;;;26.20;70.50;;;;;;5114558;28;20420;-75
2022/09/02 12:49:47;;;;;;;2.60;1.10;;;26.60;71.40;;;;;;5094222;28;20032;-76
2022/09/02 12:52:35;;;;;;;1.67;0.93;;;26.20;71.50;;;;;;5093811;28;20032;-76
2022/09/02 12:55:25;;;;;;;1.10;0.90;;;26.60;71.40;;;;;;5093306;28;20020;-76
2022/09/02 12:58:03;;;;;;;2.30;1.05;;;26.70;71.80;;;;;;5083153;28;20077;-76
2022/09/02 13:00:53;;;;;;;1.77;0.80;;;27.20;72.80;;;;;;5093371;28;20462;-75
2022/09/02 13:03:24;;;;;;;4.43;1.25;;;26.60;70.70;;;;;;5093637;28;20024;-75
2022/09/02 13:05:53;;;;;;;1.48;0.90;;;26.10;70.20;;;;;;5093680;28;20022;-76
2022/09/02 13:08:47;;;;;;;1.70;1.20;;;26.00;70.40;;;;;;5093235;28;20053;-75